但馬空港の過去48時間の天気

但馬空港 (Tajima)

現在時刻: 7/19 09:08 JST (7/19 00:08 UTC) 以下の時間は現地時間です。

過去48時間のMETAR気象情報
時間 風向 風速(m/s) 視程 気温(℃) 湿度(%) 気圧(hPa) 天気現象
19 08:30 不定 1 10km以上 27 94 1012
18 18:00 北北東 3 10km以上 29 66 1011
18 17:00 北北東 3 10km以上 31 59 1011
18 16:00 北北東 4 10km以上 32 56 1011
18 15:00 4 10km以上 32 56 1011
18 14:00 5 10km以上 33 53 1011
18 13:00 4 10km以上 33 53 1011
18 12:00 3 10km以上 33 53 1011
18 11:00 2 10km以上 33 46 1011
18 10:00 不定 1 10km以上 32 63 1012
18 09:00 2 10km以上 30 84 1012
18 08:30 南南東 2 10km以上 29 94 1012
RJBT 182330Z VRB01KT CAVOK 27/26 Q1012
RJBT 180900Z 02005KT 340V050 9999 FEW030 29/22 Q1011
RJBT 180800Z 02005KT 340V070 9999 FEW035 31/22 Q1011
RJBT 180700Z 02007KT 330V050 9999 FEW035 32/22 Q1011
RJBT 180600Z 01007KT 310V050 9999 FEW035CB 32/22 Q1011
RJBT 180500Z 01009KT 330V050 9999 FEW035CB 33/22 Q1011
RJBT 180400Z 01007KT 320V060 9999 FEW035 33/22 Q1011
RJBT 180300Z 01006KT 330V060 9999 FEW040 33/22 Q1011
RJBT 180200Z 01004KT 320V060 9999 FEW040 SCT/// 33/20 Q1011
RJBT 180100Z VRB02KT 9999 FEW035 SCT/// 32/24 Q1012
RJBT 180000Z 17003KT 130V230 9999 FEW035 SCT/// 30/27 Q1012
RJBT 172330Z 16003KT 120V220 9999 FEW035 SCT/// 29/28 Q1012